Terminal Aerodrome Forecast
Issued by NWS Knoxville/Tri Cities, TN

Home | Current Version | Previous Version | Text Only | Print | Product List | Glossary On
Versions: 1 2 3 4 5 6 7 8 9 10 11 12 13 14 15 16 17 18 19 20 21 22 23 24 25 26 27 28 29 30 31 32 33 34 35 36 37 38 39 40 41 42
000
FTUS44 KMRX 041128
TAFTRI
TAF
KTRI 041128Z 0412/0512 VRB03KT 1 1/2SM BR VCSH SCT003 OVC020
      WS020/23045KT
      TEMPO 0412/0414 1/2SM -RA FG OVC003
     FM041500 22007KT 4SM -SHRA BR SCT015 OVC025
     FM041800 24010KT P6SM BKN035
     FM042100 24011KT 4SM -SHRA BR OVC040
     FM050300 30007KT 3SM -RA BR SCT007 OVC015=

USA.gov is the U.S. government's official web portal to all federal, state and local government web resources and services.